Hugh Town, United Kingdom

4:39 PM BST on April 27, 2017 (GMT +0100)
IISLESOF2 | | Change Station

Elev 100 ft 49.96 °N, 6.28 °W | Updated 3 minutes ago

Scattered Clouds
Scattered Clouds
52.3 °F
Feels Like 52.3 °F
N
15.0
Wind Variable Wind from North
Gusts 18.0 mph

Today
High -- | Low -- °F
--% Chance of Precip.
Yesterday
High -- | Low -- °F
Precip. -- in
Pressure 30.21 in
Visibility 6.2 miles
Clouds Scattered Clouds 2200 ft
Scattered Clouds 4600 ft
Dew Point 44 °F
Humidity 72%
Rainfall 0.04 in
Snow Depth Not available.
6:08 AM 8:37 PM
New Moon, 2% visible
METAR EGHE 271520Z 31012KT 9999 SCT022 SCT046 10/05 Q1023
Pressure 30.21 in
Visibility 6.2 miles
Clouds Scattered Clouds 2200 ft
Scattered Clouds 4600 ft
Dew Point 44 °F
Humidity 72%
Rainfall 0.04 in
Snow Depth Not available.
6:08 AM 8:37 PM
New Moon, 2% visible
METAR EGHE 271520Z 31012KT 9999 SCT022 SCT046 10/05 Q1023

Get Severe Weather Alerts

Thanks for signing up!

Be on the lookout for a verification email in your inbox.

You'll start receiving the daily forecast at 8 AM.

×

10-Day Weather Forecast

×

Almanac

Astronomy

Apr. 27, 2017 Rise Set
Actual Time
Civil Twilight
Nautical Twilight
Astronomical Twilight
Moon
Length of Visible Light
Length of Day
Tomorrow will be .
, % of the Moon is Illuminated

Today's Extremes

Country Highs Country Lows

Community

WunderPhotos

WunderBlog® & News

Nearby

Air Quality

  Air Quality AQ Index Pollutant
Not available.

Snow Depth

Station Depth Elevation

Earthquake Activity

City Distance Mag. Time & Date
Minimum magnitude displayed is 2.5.

Coastal Water Temperatures

Place Temperature

Stations

Nearby Weather Stations

Station Location Temp. Windchill Dew Point Humidity Wind Precip. Elev Updated Type